Time;durP1;ratioP1;P1;durP2;ratioP2;P2;SDS_P1;SDS_P2;PMS_P1;PMS_P2;Temp;Humidity;BMP_temperature;BMP_pressure;BME280_temperature;BME280_humidity;BME280_pressure;Samples;Min_cycle;Max_cycle;Signal;HPM_P1;HPM_P2
2021/05/13 00:02:25;;;;;;;27.23;15.85;;;;;;;;;;4922607;29;20315;-58
2021/05/13 00:04:52;;;;;;;23.50;15.25;;;;;;;;;;4918954;29;20044;-57
2021/05/13 00:07:19;;;;;;;24.88;15.70;;;;;;;;;;4920973;29;20044;-57
2021/05/13 00:09:47;;;;;;;30.03;15.27;;;;;;;;;;4923020;29;20037;-58
2021/05/13 00:12:27;;;;;;;25.23;15.18;;;;;;;;;;4925875;29;20334;-58
2021/05/13 00:14:55;;;;;;;27.73;15.95;;;;;;;;;;4925873;29;20080;-58
2021/05/13 00:17:21;;;;;;;31.48;15.80;;;;;;;;;;4925189;29;20496;-58
2021/05/13 00:19:48;;;;;;;27.35;14.57;;;;;;;;;;4926039;29;20089;-58
2021/05/13 00:22:15;;;;;;;30.25;16.08;;;;;;;;;;4926605;29;20048;-58
2021/05/13 00:24:41;;;;;;;27.48;15.40;;;;;;;;;;4921194;29;20051;-57
2021/05/13 00:27:09;;;;;;;29.95;15.40;;;;;;;;;;4923598;29;20079;-58
2021/05/13 00:29:36;;;;;;;21.35;14.25;;;;;;;;;;4928604;29;20063;-58
2021/05/13 00:32:02;;;;;;;28.65;15.93;;;;;;;;;;4920543;28;20055;-56
2021/05/13 00:34:29;;;;;;;25.08;14.23;;;;;;;;;;4944000;28;20035;-58
2021/05/13 00:36:57;;;;;;;25.17;14.75;;;;;;;;;;4943195;28;20437;-57
2021/05/13 00:39:24;;;;;;;26.55;15.82;;;;;;;;;;4947794;28;20538;-58
2021/05/13 00:41:51;;;;;;;24.08;14.70;;;;;;;;;;4941368;29;20043;-58
2021/05/13 00:44:17;;;;;;;27.52;15.32;;;;;;;;;;4942314;29;20130;-58
2021/05/13 00:46:44;;;;;;;32.40;15.68;;;;;;;;;;4945537;28;20133;-58
2021/05/13 00:49:15;;;;;;;33.17;18.33;;;;;;;;;;4945628;28;20048;-58
2021/05/13 00:51:42;;;;;;;32.65;18.55;;;;;;;;;;4943680;28;20051;-59
2021/05/13 00:54:09;;;;;;;35.17;18.33;;;;;;;;;;4943722;28;20043;-58
2021/05/13 00:56:36;;;;;;;29.52;16.85;;;;;;;;;;4947981;28;20043;-57
2021/05/13 00:59:09;;;;;;;32.60;17.98;;;;;;;;;;4927834;29;20557;-58
2021/05/13 01:04:19;;;;;;;30.15;17.15;;;;;;;;;;4941951;28;21002;-57
2021/05/13 01:06:47;;;;;;;36.35;18.75;;;;;;;;;;4946644;28;20122;-57
2021/05/13 01:09:26;;;;;;;31.52;18.30;;;;;;;;;;4940712;28;20045;-58
2021/05/13 01:12:01;;;;;;;33.28;18.27;;;;;;;;;;4942982;28;20139;-57
2021/05/13 01:14:42;;;;;;;40.03;19.05;;;;;;;;;;4945653;28;20047;-58
2021/05/13 01:19:42;;;;;;;39.90;20.35;;;;;;;;;;4950449;28;20047;-58
2021/05/13 01:22:08;;;;;;;;;;;;;;;;;;4947778;28;20046;-59
2021/05/13 01:24:37;;;;;;;37.80;18.52;;;;;;;;;;4944157;28;19953;-58
2021/05/13 01:27:05;;;;;;;41.47;19.95;;;;;;;;;;4939545;28;20138;-57
2021/05/13 01:29:32;;;;;;;44.53;20.02;;;;;;;;;;4943397;28;20127;-56
2021/05/13 01:31:59;;;;;;;54.38;21.98;;;;;;;;;;4938178;28;20531;-58
2021/05/13 01:34:27;;;;;;;47.70;20.60;;;;;;;;;;4930081;29;20052;-58
2021/05/13 01:36:53;;;;;;;47.28;21.40;;;;;;;;;;4928003;29;20040;-58
2021/05/13 01:39:21;;;;;;;;;;;;;;;;;;4922254;29;20613;-58
2021/05/13 01:41:48;;;;;;;56.67;21.55;;;;;;;;;;4925966;29;20382;-58
2021/05/13 01:44:14;;;;;;;44.15;21.85;;;;;;;;;;4921892;29;20051;-58
2021/05/13 01:46:41;;;;;;;65.25;22.88;;;;;;;;;;4926004;29;20126;-57
2021/05/13 01:49:21;;;;;;;51.67;22.17;;;;;;;;;;4925854;29;20043;-58
2021/05/13 01:51:49;;;;;;;47.90;23.35;;;;;;;;;;4923520;29;20048;-58
2021/05/13 01:54:19;;;;;;;50.53;22.13;;;;;;;;;;4925758;29;20201;-57
2021/05/13 01:56:47;;;;;;;40.63;21.35;;;;;;;;;;4925245;29;20059;-58
2021/05/13 01:59:15;;;;;;;46.67;22.45;;;;;;;;;;4931980;29;20043;-57
2021/05/13 02:01:42;;;;;;;53.78;22.85;;;;;;;;;;4927238;29;20501;-58
2021/05/13 02:04:09;;;;;;;53.47;22.60;;;;;;;;;;4929363;29;20100;-58
2021/05/13 02:06:36;;;;;;;52.23;23.10;;;;;;;;;;4925721;29;20039;-57
2021/05/13 02:09:04;;;;;;;46.92;22.10;;;;;;;;;;4929516;29;20075;-58
2021/05/13 02:11:31;;;;;;;54.22;24.77;;;;;;;;;;4926758;29;20127;-58
2021/05/13 02:13:57;;;;;;;64.72;26.42;;;;;;;;;;4927718;29;20465;-57
2021/05/13 02:16:25;;;;;;;114.43;26.10;;;;;;;;;;4927511;29;20122;-57
2021/05/13 02:18:52;;;;;;;57.97;24.48;;;;;;;;;;4929972;29;20047;-58
2021/05/13 02:21:19;;;;;;;65.77;25.60;;;;;;;;;;4928594;29;20047;-58
2021/05/13 02:23:48;;;;;;;60.90;25.45;;;;;;;;;;4929804;29;20092;-58
2021/05/13 02:26:16;;;;;;;50.80;25.10;;;;;;;;;;4926589;29;20043;-57
2021/05/13 02:28:42;;;;;;;64.15;25.98;;;;;;;;;;4933059;29;20065;-57
2021/05/13 02:31:09;;;;;;;49.77;23.47;;;;;;;;;;4927725;29;20142;-58
2021/05/13 02:33:36;;;;;;;72.93;27.67;;;;;;;;;;4926088;29;20318;-58
2021/05/13 02:36:08;;;;;;;72.40;27.58;;;;;;;;;;4928429;29;20043;-57
2021/05/13 02:38:36;;;;;;;93.28;28.83;;;;;;;;;;4931022;29;20046;-58
2021/05/13 02:41:03;;;;;;;92.32;27.80;;;;;;;;;;4924855;29;20118;-58
2021/05/13 02:43:29;;;;;;;70.55;24.92;;;;;;;;;;4927855;29;20772;-57
2021/05/13 02:45:58;;;;;;;109.18;25.90;;;;;;;;;;4931145;29;20048;-57
2021/05/13 02:48:24;;;;;;;66.45;25.55;;;;;;;;;;4926431;29;20557;-57
2021/05/13 02:50:51;;;;;;;68.53;24.92;;;;;;;;;;4924584;29;20044;-58
2021/05/13 02:53:21;;;;;;;61.95;24.80;;;;;;;;;;4932065;29;20050;-58
2021/05/13 02:55:47;;;;;;;128.20;29.38;;;;;;;;;;4928347;29;20054;-57
2021/05/13 02:58:14;;;;;;;106.45;27.65;;;;;;;;;;4926907;29;20048;-58
2021/05/13 03:01:05;;;;;;;;;;;;;;;;;;4930377;29;20127;-56
2021/05/13 03:03:33;;;;;;;190.18;30.00;;;;;;;;;;4934013;29;20331;-56
2021/05/13 03:06:00;;;;;;;110.72;28.88;;;;;;;;;;4931287;29;20130;-56
2021/05/13 03:08:27;;;;;;;79.50;26.85;;;;;;;;;;4928585;29;20079;-54
2021/05/13 03:10:53;;;;;;;91.53;29.52;;;;;;;;;;4929688;29;20050;-57
2021/05/13 03:13:23;;;;;;;104.07;28.38;;;;;;;;;;4926442;29;20427;-57
2021/05/13 03:15:50;;;;;;;83.60;27.45;;;;;;;;;;4927288;29;20055;-56
2021/05/13 03:18:18;;;;;;;74.53;26.67;;;;;;;;;;4923894;29;20542;-56
2021/05/13 03:20:52;;;;;;;91.95;28.17;;;;;;;;;;4924295;29;20073;-56
2021/05/13 03:23:26;;;;;;;85.53;27.58;;;;;;;;;;4921230;29;20400;-56
2021/05/13 03:25:59;;;;;;;141.15;30.05;;;;;;;;;;4923815;29;20044;-57
2021/05/13 03:28:26;;;;;;;109.43;27.75;;;;;;;;;;4927891;29;20059;-56
2021/05/13 03:30:53;;;;;;;146.38;30.70;;;;;;;;;;4927906;28;20135;-57
2021/05/13 03:33:20;;;;;;;175.00;30.88;;;;;;;;;;4923535;29;20115;-57
2021/05/13 03:35:46;;;;;;;173.02;29.52;;;;;;;;;;4927343;29;20050;-56
2021/05/13 03:38:14;;;;;;;126.18;29.30;;;;;;;;;;4924566;29;20051;-57
2021/05/13 03:40:41;;;;;;;163.32;32.55;;;;;;;;;;4922037;29;20583;-58
2021/05/13 03:43:08;;;;;;;202.27;33.58;;;;;;;;;;4924551;29;20556;-57
2021/05/13 03:45:35;;;;;;;241.32;34.90;;;;;;;;;;4907510;29;20083;-56
2021/05/13 03:48:03;;;;;;;195.85;33.50;;;;;;;;;;4931052;29;20075;-57
2021/05/13 03:50:30;;;;;;;;;;;;;;;;;;4923856;29;20051;-57
2021/05/13 03:52:57;;;;;;;104.47;28.58;;;;;;;;;;4932259;29;19923;-56
2021/05/13 03:55:24;;;;;;;102.10;28.20;;;;;;;;;;4927152;29;20046;-56
2021/05/13 03:57:54;;;;;;;177.30;31.92;;;;;;;;;;4921484;29;20047;-56
2021/05/13 04:00:32;;;;;;;184.65;31.67;;;;;;;;;;4927213;29;20040;-55
2021/05/13 04:02:59;;;;;;;164.23;30.05;;;;;;;;;;4927016;29;20051;-57
2021/05/13 04:05:26;;;;;;;254.32;33.13;;;;;;;;;;4931585;29;20039;-56
2021/05/13 04:07:53;;;;;;;186.13;31.38;;;;;;;;;;4925965;29;20072;-57
2021/05/13 04:10:20;;;;;;;208.77;32.70;;;;;;;;;;4925721;29;20039;-58
2021/05/13 04:12:52;;;;;;;194.98;31.35;;;;;;;;;;4924199;29;20044;-57
2021/05/13 04:15:19;;;;;;;99.40;27.35;;;;;;;;;;4910873;29;20080;-57
2021/05/13 04:17:46;;;;;;;184.00;32.13;;;;;;;;;;4926030;29;20147;-57
2021/05/13 04:20:13;;;;;;;138.43;28.57;;;;;;;;;;4927347;29;20122;-57
2021/05/13 04:22:40;;;;;;;154.63;29.05;;;;;;;;;;4932435;29;20291;-57
2021/05/13 04:25:07;;;;;;;224.88;32.38;;;;;;;;;;4924353;29;20476;-57
2021/05/13 04:27:34;;;;;;;94.13;24.70;;;;;;;;;;4922669;29;20048;-57
2021/05/13 04:30:00;;;;;;;146.73;30.33;;;;;;;;;;4922213;29;20049;-58
2021/05/13 04:32:27;;;;;;;104.38;24.33;;;;;;;;;;4923203;29;20055;-57
2021/05/13 04:34:57;;;;;;;76.38;25.85;;;;;;;;;;4927833;29;20036;-58
2021/05/13 04:37:24;;;;;;;137.18;28.52;;;;;;;;;;4924221;29;20044;-57
2021/05/13 04:39:51;;;;;;;97.57;25.10;;;;;;;;;;4912929;29;20046;-58
2021/05/13 04:42:18;;;;;;;82.77;25.70;;;;;;;;;;4926010;29;20058;-58
2021/05/13 04:44:45;;;;;;;95.07;25.67;;;;;;;;;;4914085;29;20036;-58
2021/05/13 04:47:24;;;;;;;89.95;25.65;;;;;;;;;;4925730;29;20496;-58
2021/05/13 04:49:51;;;;;;;82.63;24.20;;;;;;;;;;4924407;29;20055;-58
2021/05/13 04:52:19;;;;;;;57.38;23.92;;;;;;;;;;4921095;29;20079;-58
2021/05/13 04:54:49;;;;;;;71.25;24.33;;;;;;;;;;4929895;29;20052;-58
2021/05/13 04:57:17;;;;;;;73.43;25.27;;;;;;;;;;4916701;29;20040;-58
2021/05/13 04:59:44;;;;;;;82.15;25.63;;;;;;;;;;4923562;29;20468;-58
2021/05/13 05:02:11;;;;;;;50.60;22.33;;;;;;;;;;4922393;29;20445;-58
2021/05/13 05:04:41;;;;;;;54.03;21.65;;;;;;;;;;4920934;29;20135;-58
2021/05/13 05:07:08;;;;;;;48.53;21.57;;;;;;;;;;4927796;29;20042;-56
2021/05/13 05:09:35;;;;;;;45.28;20.05;;;;;;;;;;4925128;29;20367;-58
2021/05/13 05:12:03;;;;;;;45.67;22.08;;;;;;;;;;4922484;29;20079;-57
2021/05/13 05:14:30;;;;;;;41.35;19.25;;;;;;;;;;4930718;29;20060;-58
2021/05/13 05:16:57;;;;;;;38.42;20.02;;;;;;;;;;4920921;29;20051;-57
2021/05/13 05:19:26;;;;;;;38.45;19.92;;;;;;;;;;4924075;29;20051;-57
2021/05/13 05:21:53;;;;;;;36.90;19.25;;;;;;;;;;4924825;29;20049;-58
2021/05/13 05:24:19;;;;;;;37.92;19.05;;;;;;;;;;4923610;29;20044;-57
2021/05/13 05:26:47;;;;;;;38.58;19.23;;;;;;;;;;4926691;29;20057;-57
2021/05/13 05:29:13;;;;;;;41.15;19.95;;;;;;;;;;4933605;29;20056;-57
2021/05/13 05:31:40;;;;;;;36.58;19.10;;;;;;;;;;4931511;29;20142;-57
2021/05/13 05:34:07;;;;;;;36.50;18.13;;;;;;;;;;4928992;29;20052;-57
2021/05/13 05:36:34;;;;;;;34.35;19.02;;;;;;;;;;4930009;29;20059;-57
2021/05/13 05:39:01;;;;;;;35.53;18.67;;;;;;;;;;4930936;29;20074;-57
2021/05/13 05:41:29;;;;;;;37.95;19.38;;;;;;;;;;4927237;29;20127;-57
2021/05/13 05:43:56;;;;;;;40.53;19.47;;;;;;;;;;4931585;29;20488;-57
2021/05/13 05:46:23;;;;;;;37.50;19.30;;;;;;;;;;4931739;29;20066;-58
2021/05/13 05:48:50;;;;;;;37.38;19.80;;;;;;;;;;4933377;29;20288;-58
2021/05/13 05:51:17;;;;;;;38.70;20.35;;;;;;;;;;4932342;29;20065;-58
2021/05/13 05:53:44;;;;;;;33.53;18.77;;;;;;;;;;4929970;29;20044;-58
2021/05/13 05:56:12;;;;;;;34.45;17.50;;;;;;;;;;4931607;29;20508;-58
2021/05/13 05:58:38;;;;;;;39.47;19.93;;;;;;;;;;4922931;29;20531;-57
2021/05/13 06:01:05;;;;;;;33.80;18.48;;;;;;;;;;4931327;29;20536;-57
2021/05/13 06:03:32;;;;;;;40.55;19.77;;;;;;;;;;4932412;29;20500;-58
2021/05/13 06:06:00;;;;;;;36.53;19.95;;;;;;;;;;4928348;29;20051;-57
2021/05/13 06:08:26;;;;;;;34.33;19.27;;;;;;;;;;4929962;29;20054;-57
2021/05/13 06:10:53;;;;;;;41.53;19.42;;;;;;;;;;4924765;29;20040;-58
2021/05/13 06:13:20;;;;;;;36.15;19.20;;;;;;;;;;4923510;29;20496;-57
2021/05/13 06:15:46;;;;;;;30.85;17.63;;;;;;;;;;4924021;29;20041;-57
2021/05/13 06:18:18;;;;;;;37.05;18.73;;;;;;;;;;4924284;29;20090;-57
2021/05/13 06:20:44;;;;;;;36.85;19.75;;;;;;;;;;4927734;29;20123;-57
2021/05/13 06:23:11;;;;;;;42.55;20.77;;;;;;;;;;4925200;29;20117;-58
2021/05/13 06:25:39;;;;;;;35.33;18.92;;;;;;;;;;4926673;29;20493;-58
2021/05/13 06:28:08;;;;;;;34.20;18.85;;;;;;;;;;4925975;29;20044;-57
2021/05/13 06:30:35;;;;;;;40.22;20.73;;;;;;;;;;4925893;29;20046;-57
2021/05/13 06:33:01;;;;;;;33.70;19.67;;;;;;;;;;4923684;29;20055;-56
2021/05/13 06:35:28;;;;;;;32.80;19.00;;;;;;;;;;4929135;29;20410;-57
2021/05/13 06:37:55;;;;;;;32.30;18.33;;;;;;;;;;4931125;29;20323;-57
2021/05/13 06:40:22;;;;;;;34.25;19.25;;;;;;;;;;4930020;29;20802;-54
2021/05/13 06:42:49;;;;;;;36.95;19.42;;;;;;;;;;4928940;29;20043;-56
2021/05/13 06:45:16;;;;;;;39.50;20.50;;;;;;;;;;4925642;29;20130;-58
2021/05/13 06:47:43;;;;;;;40.47;19.80;;;;;;;;;;4929996;29;20039;-55
2021/05/13 06:50:11;;;;;;;31.92;19.00;;;;;;;;;;4931893;29;20487;-57
2021/05/13 06:52:39;;;;;;;40.08;21.00;;;;;;;;;;4931062;29;20075;-58
2021/05/13 06:55:07;;;;;;;39.75;20.23;;;;;;;;;;4931261;29;20040;-56
2021/05/13 06:57:33;;;;;;;33.10;19.08;;;;;;;;;;4933810;29;20590;-56
2021/05/13 07:00:00;;;;;;;38.00;18.92;;;;;;;;;;4933343;29;20123;-58
2021/05/13 07:02:27;;;;;;;43.30;20.83;;;;;;;;;;4927655;29;20056;-56
2021/05/13 07:04:53;;;;;;;38.47;20.73;;;;;;;;;;4928631;29;20044;-58
2021/05/13 07:07:26;;;;;;;37.30;21.23;;;;;;;;;;4931801;29;20062;-58
2021/05/13 07:09:53;;;;;;;41.45;21.77;;;;;;;;;;4925626;29;20584;-58
2021/05/13 07:12:20;;;;;;;38.08;20.08;;;;;;;;;;4927302;29;20039;-59
2021/05/13 07:14:46;;;;;;;37.83;19.98;;;;;;;;;;4925483;29;20039;-58
2021/05/13 07:17:14;;;;;;;;;;;;;;;;;;4927998;29;20076;-57
2021/05/13 07:19:41;;;;;;;45.67;21.08;;;;;;;;;;4929846;29;19930;-58
2021/05/13 07:22:07;;;;;;;37.78;20.63;;;;;;;;;;4928459;29;20040;-58
2021/05/13 07:24:34;;;;;;;37.38;19.80;;;;;;;;;;4930221;29;20039;-56
2021/05/13 07:27:01;;;;;;;33.83;19.85;;;;;;;;;;4924739;29;20048;-57
2021/05/13 07:29:27;;;;;;;28.08;18.13;;;;;;;;;;4928359;29;20048;-58
2021/05/13 07:31:54;;;;;;;34.92;19.05;;;;;;;;;;4927567;29;20464;-58
2021/05/13 07:34:20;;;;;;;31.48;18.63;;;;;;;;;;4924731;29;20515;-57
2021/05/13 07:36:47;;;;;;;34.67;19.17;;;;;;;;;;4926017;29;20555;-57
2021/05/13 07:39:15;;;;;;;32.38;18.13;;;;;;;;;;4931584;29;20047;-57
2021/05/13 07:41:42;;;;;;;;;;;;;;;;;;4923352;29;20048;-59
2021/05/13 07:44:08;;;;;;;35.42;16.40;;;;;;;;;;4928545;29;19929;-57
2021/05/13 07:46:38;;;;;;;35.03;17.60;;;;;;;;;;4924404;29;20044;-57
2021/05/13 07:49:10;;;;;;;34.40;18.83;;;;;;;;;;4928560;29;20075;-57
2021/05/13 07:51:36;;;;;;;26.55;16.90;;;;;;;;;;4912362;29;20044;-58
2021/05/13 07:54:03;;;;;;;26.60;15.45;;;;;;;;;;4924910;29;20054;-58
2021/05/13 07:56:31;;;;;;;26.48;16.58;;;;;;;;;;4922795;29;20082;-57
2021/05/13 07:58:59;;;;;;;25.50;16.58;;;;;;;;;;4922650;29;20048;-59
2021/05/13 08:01:26;;;;;;;31.27;15.75;;;;;;;;;;4927755;29;20055;-59
2021/05/13 08:03:53;;;;;;;28.67;16.15;;;;;;;;;;4926445;29;20054;-58
2021/05/13 08:06:19;;;;;;;25.90;15.65;;;;;;;;;;4925766;29;20590;-58
2021/05/13 08:08:46;;;;;;;23.35;14.20;;;;;;;;;;4929120;29;20052;-58
2021/05/13 08:11:12;;;;;;;23.30;14.20;;;;;;;;;;4925806;29;20552;-57
2021/05/13 08:13:39;;;;;;;28.47;15.10;;;;;;;;;;4922838;29;20052;-58
2021/05/13 08:16:06;;;;;;;19.42;13.57;;;;;;;;;;4926060;29;20367;-59
2021/05/13 08:18:33;;;;;;;19.58;13.68;;;;;;;;;;4924776;29;20048;-58
2021/05/13 08:21:01;;;;;;;24.20;13.10;;;;;;;;;;4927982;29;20032;-58
2021/05/13 08:23:27;;;;;;;31.02;13.90;;;;;;;;;;4921266;29;20069;-59
2021/05/13 08:25:54;;;;;;;23.25;12.82;;;;;;;;;;4927713;29;20058;-58
2021/05/13 08:28:21;;;;;;;17.88;12.55;;;;;;;;;;4928271;29;20054;-57
2021/05/13 08:30:48;;;;;;;24.73;13.15;;;;;;;;;;4928303;29;20551;-60
2021/05/13 08:33:15;;;;;;;;;;;;;;;;;;4924913;29;20544;-58
2021/05/13 08:35:42;;;;;;;19.60;12.65;;;;;;;;;;4925744;29;19931;-59
2021/05/13 08:38:12;;;;;;;19.23;12.75;;;;;;;;;;4928396;29;20146;-59
2021/05/13 08:40:38;;;;;;;18.90;11.90;;;;;;;;;;4927084;29;20122;-59
2021/05/13 08:43:05;;;;;;;18.15;12.07;;;;;;;;;;4928486;29;20616;-59
2021/05/13 08:45:33;;;;;;;18.95;12.45;;;;;;;;;;4929679;29;20381;-59
2021/05/13 08:48:01;;;;;;;20.38;12.85;;;;;;;;;;4925403;29;20130;-59
2021/05/13 08:50:28;;;;;;;19.95;13.25;;;;;;;;;;4923347;29;20047;-59
2021/05/13 08:52:55;;;;;;;16.88;11.88;;;;;;;;;;4926213;29;20058;-59
2021/05/13 08:55:22;;;;;;;19.60;13.45;;;;;;;;;;4928300;29;20047;-59
2021/05/13 08:57:49;;;;;;;16.25;12.70;;;;;;;;;;4920652;29;20040;-58
2021/05/13 09:00:16;;;;;;;24.65;13.40;;;;;;;;;;4925795;29;20100;-59
2021/05/13 09:02:52;;;;;;;16.27;12.77;;;;;;;;;;4930305;29;20139;-59
2021/05/13 09:05:20;;;;;;;17.75;11.90;;;;;;;;;;4923989;29;20299;-58
2021/05/13 09:07:46;;;;;;;18.63;12.60;;;;;;;;;;4926092;29;20135;-59
2021/05/13 09:10:14;;;;;;;16.58;11.88;;;;;;;;;;4922485;29;20395;-59
2021/05/13 09:12:44;;;;;;;16.30;11.90;;;;;;;;;;4926301;29;20040;-58
2021/05/13 09:15:14;;;;;;;14.38;10.95;;;;;;;;;;4925672;29;20123;-59
2021/05/13 09:17:42;;;;;;;16.20;11.18;;;;;;;;;;4925615;29;20571;-58
2021/05/13 09:20:22;;;;;;;20.23;12.18;;;;;;;;;;4924305;29;20071;-58
2021/05/13 09:22:49;;;;;;;15.80;10.20;;;;;;;;;;4923181;29;20095;-58
2021/05/13 09:25:16;;;;;;;15.73;11.45;;;;;;;;;;4926421;29;20913;-59
2021/05/13 09:27:47;;;;;;;13.30;10.30;;;;;;;;;;4928309;29;20051;-58
2021/05/13 09:30:18;;;;;;;20.27;11.65;;;;;;;;;;4925866;29;20040;-58
2021/05/13 09:32:49;;;;;;;14.40;10.70;;;;;;;;;;4926744;29;20070;-60
2021/05/13 09:35:23;;;;;;;20.05;11.05;;;;;;;;;;4929759;29;20049;-59
2021/05/13 09:37:51;;;;;;;15.15;11.15;;;;;;;;;;4922398;29;20445;-59
2021/05/13 09:40:17;;;;;;;;;;;;;;;;;;4926444;29;20158;-59
2021/05/13 09:42:44;;;;;;;21.40;11.00;;;;;;;;;;4923513;29;19922;-59
2021/05/13 09:45:10;;;;;;;13.63;10.73;;;;;;;;;;4930054;29;20447;-59
2021/05/13 09:47:38;;;;;;;13.43;10.75;;;;;;;;;;4921729;29;20615;-59
2021/05/13 09:50:14;;;;;;;15.50;9.90;;;;;;;;;;4923888;29;20043;-59
2021/05/13 09:52:43;;;;;;;15.25;10.40;;;;;;;;;;4920899;29;20577;-59
2021/05/13 09:55:14;;;;;;;16.23;11.00;;;;;;;;;;4925512;29;20059;-59
2021/05/13 09:57:46;;;;;;;14.50;10.38;;;;;;;;;;4926510;29;20126;-59
2021/05/13 10:00:28;;;;;;;12.23;9.55;;;;;;;;;;4924458;29;20052;-59
2021/05/13 10:02:55;;;;;;;16.92;10.18;;;;;;;;;;4926872;29;20100;-59
2021/05/13 10:05:22;;;;;;;13.40;10.40;;;;;;;;;;4920900;29;20119;-59
2021/05/13 10:07:49;;;;;;;15.32;10.10;;;;;;;;;;4922382;29;20151;-59
2021/05/13 10:10:33;;;;;;;13.95;9.73;;;;;;;;;;4922166;29;20075;-59
2021/05/13 10:13:01;;;;;;;11.75;9.68;;;;;;;;;;4923109;29;20071;-59
2021/05/13 10:15:28;;;;;;;;;;;;;;;;;;4927607;29;20063;-59
2021/05/13 10:17:57;;;;;;;13.30;8.52;;;;;;;;;;4925729;29;19922;-59
2021/05/13 10:20:25;;;;;;;14.73;8.07;;;;;;;;;;4924202;29;20062;-59
2021/05/13 10:22:53;;;;;;;10.23;7.95;;;;;;;;;;4925957;29;20082;-60
2021/05/13 10:25:19;;;;;;;10.43;8.27;;;;;;;;;;4928510;29;20048;-59
2021/05/13 10:27:53;;;;;;;12.20;8.30;;;;;;;;;;4931599;29;20059;-59
2021/05/13 10:30:26;;;;;;;19.80;8.07;;;;;;;;;;4933484;29;20044;-59
2021/05/13 10:33:07;;;;;;;15.50;8.35;;;;;;;;;;4923965;29;20056;-59
2021/05/13 10:35:34;;;;;;;13.45;8.57;;;;;;;;;;4923708;29;20051;-59
2021/05/13 10:38:05;;;;;;;14.77;8.27;;;;;;;;;;4926432;29;20052;-59
2021/05/13 10:40:45;;;;;;;15.90;8.85;;;;;;;;;;4928302;29;20518;-59
2021/05/13 10:43:14;;;;;;;11.15;8.60;;;;;;;;;;4924039;29;20547;-59
2021/05/13 10:45:42;;;;;;;13.60;8.85;;;;;;;;;;4927240;29;20511;-59
2021/05/13 10:48:09;;;;;;;12.43;8.73;;;;;;;;;;4929485;29;20048;-58
2021/05/13 10:50:41;;;;;;;13.35;8.60;;;;;;;;;;4925505;29;20048;-59
2021/05/13 10:53:39;;;;;;;11.93;7.78;;;;;;;;;;4929007;29;20511;-59
2021/05/13 10:56:19;;;;;;;14.20;9.00;;;;;;;;;;4909781;29;20044;-59
2021/05/13 10:59:03;;;;;;;10.57;8.25;;;;;;;;;;4926372;29;20048;-59
2021/05/13 11:01:46;;;;;;;16.35;7.63;;;;;;;;;;4927511;29;20108;-59
2021/05/13 11:04:25;;;;;;;14.98;8.35;;;;;;;;;;4929339;29;20074;-59
2021/05/13 11:06:56;;;;;;;10.98;7.78;;;;;;;;;;4916618;29;20742;-59
2021/05/13 11:12:17;;;;;;;11.63;8.23;;;;;;;;;;4931688;29;20116;-59
2021/05/13 11:18:04;;;;;;;12.77;7.95;;;;;;;;;;4931813;29;20103;-59
2021/05/13 11:20:35;;;;;;;13.52;7.80;;;;;;;;;;4924447;29;20525;-59
2021/05/13 11:23:10;;;;;;;11.57;8.27;;;;;;;;;;4925067;29;20050;-59
2021/05/13 11:25:42;;;;;;;13.20;8.65;;;;;;;;;;4928423;29;20051;-59
2021/05/13 11:28:29;;;;;;;14.07;7.70;;;;;;;;;;4927131;29;20055;-59
2021/05/13 11:31:08;;;;;;;12.38;8.20;;;;;;;;;;4928158;29;20039;-59
2021/05/13 11:33:42;;;;;;;11.77;7.55;;;;;;;;;;4925325;29;20151;-59
2021/05/13 11:36:10;;;;;;;12.20;6.28;;;;;;;;;;4925493;29;20044;-59
2021/05/13 11:38:37;;;;;;;9.07;5.65;;;;;;;;;;4927975;29;20460;-59
2021/05/13 11:41:04;;;;;;;7.78;4.70;;;;;;;;;;4923431;29;20562;-59
2021/05/13 11:43:39;;;;;;;7.20;4.72;;;;;;;;;;4928614;29;20047;-59
2021/05/13 11:46:06;;;;;;;8.40;5.00;;;;;;;;;;4926620;29;20036;-59
2021/05/13 11:48:33;;;;;;;;;;;;;;;;;;4929262;29;20035;-59
2021/05/13 11:51:02;;;;;;;7.13;5.03;;;;;;;;;;4929474;29;19930;-59
2021/05/13 11:53:30;;;;;;;7.78;4.88;;;;;;;;;;4927461;29;20044;-59
2021/05/13 11:55:57;;;;;;;6.15;5.15;;;;;;;;;;4915190;29;20100;-58
2021/05/13 11:58:56;;;;;;;8.60;5.60;;;;;;;;;;4929254;29;20048;-59
2021/05/13 12:01:24;;;;;;;8.07;5.07;;;;;;;;;;4888309;29;20792;-58
2021/05/13 12:04:11;;;;;;;6.93;5.05;;;;;;;;;;4926032;29;20505;-59
2021/05/13 12:06:42;;;;;;;9.95;4.57;;;;;;;;;;4923400;29;20044;-59
2021/05/13 12:09:08;;;;;;;7.05;4.13;;;;;;;;;;4926541;29;20043;-59
2021/05/13 12:11:35;;;;;;;6.77;4.13;;;;;;;;;;4924925;29;20047;-59
2021/05/13 12:14:02;;;;;;;;;;;;;;;;;;4923662;29;20598;-59
2021/05/13 12:16:29;;;;;;;7.75;4.35;;;;;;;;;;4926514;29;19922;-59
2021/05/13 12:18:57;;;;;;;6.35;4.38;;;;;;;;;;4921457;29;20135;-59
2021/05/13 12:21:24;;;;;;;10.70;5.05;;;;;;;;;;4928979;29;20054;-59
2021/05/13 12:23:51;;;;;;;10.85;4.50;;;;;;;;;;4923580;29;20040;-59
2021/05/13 12:26:22;;;;;;;5.35;4.10;;;;;;;;;;4926651;29;20470;-59
2021/05/13 12:28:51;;;;;;;6.00;4.30;;;;;;;;;;4922860;29;20043;-58
2021/05/13 12:31:31;;;;;;;5.78;4.07;;;;;;;;;;4926498;29;20526;-59
2021/05/13 12:34:01;;;;;;;6.00;4.05;;;;;;;;;;4927855;29;20389;-59
2021/05/13 12:36:27;;;;;;;5.85;4.13;;;;;;;;;;4929072;29;20126;-59
2021/05/13 12:38:54;;;;;;;6.95;3.75;;;;;;;;;;4927448;29;20056;-59
2021/05/13 12:41:25;;;;;;;5.32;3.70;;;;;;;;;;4923230;29;20600;-59
2021/05/13 12:44:09;;;;;;;4.75;3.35;;;;;;;;;;4923557;29;20059;-58
2021/05/13 12:46:42;;;;;;;5.88;3.95;;;;;;;;;;4921301;29;20070;-58
2021/05/13 12:49:23;;;;;;;6.03;3.75;;;;;;;;;;4922617;29;20042;-59
2021/05/13 12:52:02;;;;;;;4.65;3.70;;;;;;;;;;4931043;29;20079;-58
2021/05/13 12:54:30;;;;;;;6.13;4.55;;;;;;;;;;4921879;29;20054;-59
2021/05/13 12:56:57;;;;;;;;;;;;;;;;;;4925160;29;20096;-59
2021/05/13 12:59:25;;;;;;;5.57;3.88;;;;;;;;;;4926808;29;20442;-59
2021/05/13 13:01:56;;;;;;;9.82;4.45;;;;;;;;;;4929135;29;20235;-59
2021/05/13 13:04:22;;;;;;;6.05;4.28;;;;;;;;;;4927001;29;20114;-58
2021/05/13 13:06:50;;;;;;;7.95;4.00;;;;;;;;;;4929561;29;20043;-59
2021/05/13 13:09:30;;;;;;;5.22;4.25;;;;;;;;;;4926337;29;20060;-59
2021/05/13 13:12:14;;;;;;;10.15;3.90;;;;;;;;;;4925726;29;20403;-58
2021/05/13 13:14:49;;;;;;;6.35;4.30;;;;;;;;;;4925332;29;20419;-59
2021/05/13 13:17:19;;;;;;;8.63;4.57;;;;;;;;;;4922900;29;20113;-59
2021/05/13 13:19:58;;;;;;;11.30;4.28;;;;;;;;;;4924956;29;20040;-59
2021/05/13 13:22:24;;;;;;;7.90;4.63;;;;;;;;;;4920663;29;20516;-59
2021/05/13 13:25:00;;;;;;;10.15;4.55;;;;;;;;;;4926326;29;20503;-59
2021/05/13 13:27:27;;;;;;;6.45;4.88;;;;;;;;;;4926784;29;20051;-59
2021/05/13 13:29:54;;;;;;;7.53;4.90;;;;;;;;;;4930522;29;20043;-59
2021/05/13 13:32:21;;;;;;;8.13;4.60;;;;;;;;;;4918642;29;20063;-59
2021/05/13 13:34:47;;;;;;;7.22;4.50;;;;;;;;;;4941490;28;20043;-58
2021/05/13 13:37:14;;;;;;;7.40;4.30;;;;;;;;;;4944836;28;20484;-59
2021/05/13 13:39:41;;;;;;;9.50;4.40;;;;;;;;;;4946398;28;20139;-60
2021/05/13 13:42:11;;;;;;;;;;;;;;;;;;4946678;28;20035;-59
2021/05/13 13:44:38;;;;;;;6.53;4.28;;;;;;;;;;4945241;28;19922;-59
2021/05/13 13:47:04;;;;;;;7.93;4.85;;;;;;;;;;4942637;28;20106;-59
2021/05/13 13:49:32;;;;;;;7.68;4.60;;;;;;;;;;4947552;28;20051;-59
2021/05/13 13:51:59;;;;;;;5.78;4.22;;;;;;;;;;4946856;28;20050;-59
2021/05/13 13:54:25;;;;;;;6.47;3.78;;;;;;;;;;4943705;29;20059;-58
2021/05/13 13:56:52;;;;;;;4.65;3.75;;;;;;;;;;4941755;28;20123;-59
2021/05/13 13:59:19;;;;;;;7.10;4.22;;;;;;;;;;4944062;28;20199;-59
2021/05/13 14:01:45;;;;;;;6.38;4.03;;;;;;;;;;4949572;28;20047;-59
2021/05/13 14:04:12;;;;;;;4.97;3.78;;;;;;;;;;4947512;28;20062;-59
2021/05/13 14:06:39;;;;;;;8.93;4.67;;;;;;;;;;4952317;28;20110;-59
2021/05/13 14:09:06;;;;;;;9.90;4.27;;;;;;;;;;4933251;28;20043;-59
2021/05/13 14:11:35;;;;;;;8.23;4.43;;;;;;;;;;4945894;28;20052;-59
2021/05/13 14:14:04;;;;;;;7.18;4.53;;;;;;;;;;4950375;28;20460;-59
2021/05/13 14:16:30;;;;;;;8.45;4.20;;;;;;;;;;4947477;28;20045;-59
2021/05/13 14:18:57;;;;;;;10.55;4.43;;;;;;;;;;4947810;28;20059;-59
2021/05/13 14:21:24;;;;;;;9.53;4.87;;;;;;;;;;4954448;28;20064;-59
2021/05/13 14:23:50;;;;;;;10.57;4.80;;;;;;;;;;4942882;28;20494;-59
2021/05/13 14:26:17;;;;;;;6.07;4.90;;;;;;;;;;4950339;28;20046;-59
2021/05/13 14:28:43;;;;;;;7.90;4.95;;;;;;;;;;4949826;28;20365;-59
2021/05/13 14:31:10;;;;;;;11.05;4.80;;;;;;;;;;4944145;28;20122;-59
2021/05/13 14:33:37;;;;;;;6.25;3.85;;;;;;;;;;4930321;29;20040;-59
2021/05/13 14:36:04;;;;;;;6.07;3.80;;;;;;;;;;4928244;29;20126;-59
2021/05/13 14:38:31;;;;;;;9.13;4.18;;;;;;;;;;4929237;29;20075;-59
2021/05/13 14:40:58;;;;;;;8.55;4.50;;;;;;;;;;4928998;29;20044;-59
2021/05/13 14:43:24;;;;;;;7.87;4.50;;;;;;;;;;4933086;29;20062;-59
2021/05/13 14:45:51;;;;;;;6.57;4.75;;;;;;;;;;4929324;29;20437;-59
2021/05/13 14:48:25;;;;;;;8.35;4.55;;;;;;;;;;4930468;29;20052;-59